sensor_id;sensor_type;location;lat;lon;timestamp;pressure;altitude;pressure_sealevel;temperature;humidity
30819;BME280;17546;42.674;23.284;2023-04-16T00:02:17;94212.84;;;20.44;30.94
30819;BME280;17546;42.674;23.284;2023-04-16T00:04:43;94207.50;;;20.31;30.98
30819;BME280;17546;42.674;23.284;2023-04-16T00:07:08;94181.09;;;20.01;30.86
30819;BME280;17546;42.674;23.284;2023-04-16T00:09:34;94211.19;;;20.16;30.87
30819;BME280;17546;42.674;23.284;2023-04-16T00:11:59;94184.38;;;19.90;31.00
30819;BME280;17546;42.674;23.284;2023-04-16T00:14:25;94190.41;;;19.87;30.85
30819;BME280;17546;42.674;23.284;2023-04-16T00:16:50;94196.97;;;19.81;30.92
30819;BME280;17546;42.674;23.284;2023-04-16T00:19:16;94214.66;;;19.99;30.78
30819;BME280;17546;42.674;23.284;2023-04-16T00:21:41;94202.75;;;19.91;30.85
30819;BME280;17546;42.674;23.284;2023-04-16T00:24:07;94218.44;;;19.94;30.75
30819;BME280;17546;42.674;23.284;2023-04-16T00:26:32;94206.59;;;19.71;30.45
30819;BME280;17546;42.674;23.284;2023-04-16T00:28:57;94211.84;;;19.26;30.68
30819;BME280;17546;42.674;23.284;2023-04-16T00:31:28;94192.84;;;19.09;30.76
30819;BME280;17546;42.674;23.284;2023-04-16T00:33:54;94185.91;;;19.10;30.93
30819;BME280;17546;42.674;23.284;2023-04-16T00:36:20;94181.44;;;19.07;31.00
30819;BME280;17546;42.674;23.284;2023-04-16T00:38:46;94207.91;;;19.29;30.86
30819;BME280;17546;42.674;23.284;2023-04-16T00:41:11;94196.34;;;19.17;30.85
30819;BME280;17546;42.674;23.284;2023-04-16T00:43:36;94187.72;;;19.23;31.05
30819;BME280;17546;42.674;23.284;2023-04-16T00:46:03;94191.88;;;19.07;31.65
30819;BME280;17546;42.674;23.284;2023-04-16T00:48:30;94189.44;;;19.18;31.89
30819;BME280;17546;42.674;23.284;2023-04-16T00:50:57;94190.38;;;19.13;32.04
30819;BME280;17546;42.674;23.284;2023-04-16T00:53:24;94188.41;;;19.39;31.54
30819;BME280;17546;42.674;23.284;2023-04-16T00:55:50;94197.38;;;19.37;31.75
30819;BME280;17546;42.674;23.284;2023-04-16T00:58:16;94195.91;;;19.36;31.80
30819;BME280;17546;42.674;23.284;2023-04-16T01:00:43;94204.09;;;19.42;31.55
30819;BME280;17546;42.674;23.284;2023-04-16T01:03:08;94195.16;;;19.36;31.87
30819;BME280;17546;42.674;23.284;2023-04-16T01:05:35;94194.19;;;19.41;31.76
30819;BME280;17546;42.674;23.284;2023-04-16T01:08:01;94195.34;;;19.38;32.24
30819;BME280;17546;42.674;23.284;2023-04-16T01:10:26;94184.53;;;19.59;31.98
30819;BME280;17546;42.674;23.284;2023-04-16T01:12:52;94202.31;;;19.70;31.55
30819;BME280;17546;42.674;23.284;2023-04-16T01:15:17;94187.53;;;19.61;31.33
30819;BME280;17546;42.674;23.284;2023-04-16T01:17:46;94183.50;;;19.47;31.82
30819;BME280;17546;42.674;23.284;2023-04-16T01:20:11;94175.09;;;19.39;31.88
30819;BME280;17546;42.674;23.284;2023-04-16T01:22:37;94192.03;;;19.57;31.79
30819;BME280;17546;42.674;23.284;2023-04-16T01:25:03;94190.38;;;19.54;31.62
30819;BME280;17546;42.674;23.284;2023-04-16T01:27:32;94202.97;;;19.45;32.12
30819;BME280;17546;42.674;23.284;2023-04-16T01:29:57;94204.47;;;19.46;32.26
30819;BME280;17546;42.674;23.284;2023-04-16T01:32:23;94172.06;;;19.05;32.63
30819;BME280;17546;42.674;23.284;2023-04-16T01:34:48;94198.22;;;19.23;32.44
30819;BME280;17546;42.674;23.284;2023-04-16T01:37:13;94183.41;;;19.22;32.62
30819;BME280;17546;42.674;23.284;2023-04-16T01:39:39;94173.00;;;19.07;32.82
30819;BME280;17546;42.674;23.284;2023-04-16T01:42:04;94182.31;;;19.17;32.54
30819;BME280;17546;42.674;23.284;2023-04-16T01:44:30;94189.19;;;19.24;32.52
30819;BME280;17546;42.674;23.284;2023-04-16T01:46:55;94180.59;;;19.22;32.64
30819;BME280;17546;42.674;23.284;2023-04-16T01:49:21;94166.63;;;19.14;32.91
30819;BME280;17546;42.674;23.284;2023-04-16T01:51:47;94160.81;;;19.12;32.72
30819;BME280;17546;42.674;23.284;2023-04-16T01:54:12;94166.19;;;19.26;32.78
30819;BME280;17546;42.674;23.284;2023-04-16T01:56:38;94163.31;;;18.93;33.13
30819;BME280;17546;42.674;23.284;2023-04-16T01:59:03;94161.28;;;18.86;33.15
30819;BME280;17546;42.674;23.284;2023-04-16T02:01:29;94169.91;;;18.88;33.14
30819;BME280;17546;42.674;23.284;2023-04-16T02:03:55;94158.13;;;18.82;33.13
30819;BME280;17546;42.674;23.284;2023-04-16T02:06:21;94169.53;;;18.84;33.26
30819;BME280;17546;42.674;23.284;2023-04-16T02:08:46;94166.88;;;18.93;33.10
30819;BME280;17546;42.674;23.284;2023-04-16T02:11:12;94170.63;;;18.88;33.40
30819;BME280;17546;42.674;23.284;2023-04-16T02:13:37;94171.38;;;18.89;33.52
30819;BME280;17546;42.674;23.284;2023-04-16T02:16:03;94158.13;;;18.82;33.12
30819;BME280;17546;42.674;23.284;2023-04-16T02:18:28;94165.88;;;19.06;32.51
30819;BME280;17546;42.674;23.284;2023-04-16T02:20:56;94169.00;;;19.18;32.52
30819;BME280;17546;42.674;23.284;2023-04-16T02:23:23;94174.72;;;18.95;32.84
30819;BME280;17546;42.674;23.284;2023-04-16T02:25:49;94154.72;;;18.98;32.45
30819;BME280;17546;42.674;23.284;2023-04-16T02:28:16;94162.66;;;19.17;32.60
30819;BME280;17546;42.674;23.284;2023-04-16T02:30:42;94141.78;;;19.03;32.66
30819;BME280;17546;42.674;23.284;2023-04-16T02:33:09;94163.81;;;19.14;32.63
30819;BME280;17546;42.674;23.284;2023-04-16T02:35:36;94147.38;;;19.03;32.66
30819;BME280;17546;42.674;23.284;2023-04-16T02:38:02;94157.88;;;18.95;32.73
30819;BME280;17546;42.674;23.284;2023-04-16T02:40:28;94147.03;;;18.91;32.79
30819;BME280;17546;42.674;23.284;2023-04-16T02:42:54;94154.13;;;19.00;33.14
30819;BME280;17546;42.674;23.284;2023-04-16T02:45:20;94146.66;;;18.95;33.37
30819;BME280;17546;42.674;23.284;2023-04-16T02:47:47;94148.50;;;19.00;33.13
30819;BME280;17546;42.674;23.284;2023-04-16T02:50:12;94162.72;;;19.02;33.49
30819;BME280;17546;42.674;23.284;2023-04-16T02:52:38;94154.28;;;19.02;33.74
30819;BME280;17546;42.674;23.284;2023-04-16T02:55:04;94156.00;;;19.05;33.57
30819;BME280;17546;42.674;23.284;2023-04-16T02:57:30;94147.56;;;19.05;33.14
30819;BME280;17546;42.674;23.284;2023-04-16T02:59:55;94137.88;;;18.91;33.40
30819;BME280;17546;42.674;23.284;2023-04-16T03:02:21;94121.47;;;18.79;33.64
30819;BME280;17546;42.674;23.284;2023-04-16T03:04:46;94135.84;;;18.84;33.60
30819;BME280;17546;42.674;23.284;2023-04-16T03:07:11;94148.91;;;18.96;33.52
30819;BME280;17546;42.674;23.284;2023-04-16T03:09:38;94138.69;;;18.68;33.55
30819;BME280;17546;42.674;23.284;2023-04-16T03:12:03;94137.16;;;18.75;33.35
30819;BME280;17546;42.674;23.284;2023-04-16T03:14:29;94155.69;;;18.78;33.20
30819;BME280;17546;42.674;23.284;2023-04-16T03:16:55;94150.09;;;18.63;33.43
30819;BME280;17546;42.674;23.284;2023-04-16T03:19:21;94145.81;;;18.54;33.74
30819;BME280;17546;42.674;23.284;2023-04-16T03:21:47;94146.19;;;18.58;33.56
30819;BME280;17546;42.674;23.284;2023-04-16T03:24:12;94147.47;;;18.65;33.30
30819;BME280;17546;42.674;23.284;2023-04-16T03:26:38;94142.25;;;18.53;33.11
30819;BME280;17546;42.674;23.284;2023-04-16T03:29:03;94150.88;;;18.55;33.59
30819;BME280;17546;42.674;23.284;2023-04-16T03:31:28;94150.72;;;18.46;33.89
30819;BME280;17546;42.674;23.284;2023-04-16T03:33:54;94175.50;;;18.72;33.75
30819;BME280;17546;42.674;23.284;2023-04-16T03:36:20;94182.22;;;18.77;33.84
30819;BME280;17546;42.674;23.284;2023-04-16T03:38:47;94177.00;;;18.73;33.80
30819;BME280;17546;42.674;23.284;2023-04-16T03:41:14;94179.25;;;18.83;33.57
30819;BME280;17546;42.674;23.284;2023-04-16T03:43:39;94162.41;;;18.67;33.44
30819;BME280;17546;42.674;23.284;2023-04-16T03:46:05;94158.69;;;18.72;33.59
30819;BME280;17546;42.674;23.284;2023-04-16T03:48:30;94171.19;;;18.71;33.31
30819;BME280;17546;42.674;23.284;2023-04-16T03:50:56;94183.00;;;18.85;33.31
30819;BME280;17546;42.674;23.284;2023-04-16T03:53:21;94167.28;;;18.74;33.21
30819;BME280;17546;42.674;23.284;2023-04-16T03:55:50;94181.13;;;18.88;33.31
30819;BME280;17546;42.674;23.284;2023-04-16T03:58:16;94152.34;;;18.72;33.12
30819;BME280;17546;42.674;23.284;2023-04-16T04:00:42;94175.50;;;18.88;33.29
30819;BME280;17546;42.674;23.284;2023-04-16T04:03:08;94177.34;;;18.93;33.16
30819;BME280;17546;42.674;23.284;2023-04-16T04:05:40;94162.06;;;18.78;33.13
30819;BME280;17546;42.674;23.284;2023-04-16T04:08:06;94166.91;;;18.86;33.15
30819;BME280;17546;42.674;23.284;2023-04-16T04:10:33;94175.31;;;18.86;32.96
30819;BME280;17546;42.674;23.284;2023-04-16T04:12:59;94177.03;;;18.81;33.50
30819;BME280;17546;42.674;23.284;2023-04-16T04:15:25;94171.00;;;18.85;33.39
30819;BME280;17546;42.674;23.284;2023-04-16T04:17:50;94169.16;;;18.79;33.34
30819;BME280;17546;42.674;23.284;2023-04-16T04:20:16;94184.81;;;18.98;33.29
30819;BME280;17546;42.674;23.284;2023-04-16T04:22:41;94190.41;;;18.98;33.19
30819;BME280;17546;42.674;23.284;2023-04-16T04:25:09;94198.66;;;18.96;33.51
30819;BME280;17546;42.674;23.284;2023-04-16T04:27:35;94183.75;;;18.86;33.21
30819;BME280;17546;42.674;23.284;2023-04-16T04:30:01;94199.63;;;18.91;33.43
30819;BME280;17546;42.674;23.284;2023-04-16T04:32:28;94177.19;;;18.75;33.35
30819;BME280;17546;42.674;23.284;2023-04-16T04:34:53;94207.84;;;18.96;33.68
30819;BME280;17546;42.674;23.284;2023-04-16T04:37:19;94199.25;;;18.94;33.67
30819;BME280;17546;42.674;23.284;2023-04-16T04:39:44;94197.91;;;19.03;33.41
30819;BME280;17546;42.674;23.284;2023-04-16T04:42:10;94188.22;;;18.89;33.03
30819;BME280;17546;42.674;23.284;2023-04-16T04:44:35;94190.63;;;18.92;33.37
30819;BME280;17546;42.674;23.284;2023-04-16T04:47:01;94200.91;;;19.05;33.00
30819;BME280;17546;42.674;23.284;2023-04-16T04:49:26;94193.41;;;19.00;32.98
30819;BME280;17546;42.674;23.284;2023-04-16T04:51:51;94194.91;;;19.01;32.83
30819;BME280;17546;42.674;23.284;2023-04-16T04:54:17;94179.97;;;18.91;32.68
30819;BME280;17546;42.674;23.284;2023-04-16T04:56:42;94221.06;;;19.11;32.84
30819;BME280;17546;42.674;23.284;2023-04-16T04:59:11;94211.72;;;19.16;32.75
30819;BME280;17546;42.674;23.284;2023-04-16T05:01:37;94193.81;;;18.89;33.34
30819;BME280;17546;42.674;23.284;2023-04-16T05:04:02;94218.47;;;18.98;33.46
30819;BME280;17546;42.674;23.284;2023-04-16T05:06:28;94197.34;;;18.97;33.06
30819;BME280;17546;42.674;23.284;2023-04-16T05:08:56;94222.94;;;19.09;33.19
30819;BME280;17546;42.674;23.284;2023-04-16T05:11:21;94191.94;;;18.99;32.94
30819;BME280;17546;42.674;23.284;2023-04-16T05:13:47;94213.19;;;19.17;32.74
30819;BME280;17546;42.674;23.284;2023-04-16T05:16:12;94221.06;;;19.19;33.00
30819;BME280;17546;42.674;23.284;2023-04-16T05:18:38;94211.03;;;18.93;33.40
30819;BME280;17546;42.674;23.284;2023-04-16T05:21:04;94219.22;;;19.06;33.42
30819;BME280;17546;42.674;23.284;2023-04-16T05:23:29;94221.44;;;19.15;33.16
30819;BME280;17546;42.674;23.284;2023-04-16T05:25:54;94219.75;;;19.12;33.35
30819;BME280;17546;42.674;23.284;2023-04-16T05:28:20;94218.81;;;19.17;33.24
30819;BME280;17546;42.674;23.284;2023-04-16T05:30:45;94215.84;;;19.08;33.52
30819;BME280;17546;42.674;23.284;2023-04-16T05:33:11;94199.56;;;19.06;33.27
30819;BME280;17546;42.674;23.284;2023-04-16T05:35:36;94206.47;;;19.20;33.29
30819;BME280;17546;42.674;23.284;2023-04-16T05:38:02;94184.44;;;19.02;33.33
30819;BME280;17546;42.674;23.284;2023-04-16T05:40:28;94204.22;;;19.11;33.19
30819;BME280;17546;42.674;23.284;2023-04-16T05:42:54;94214.66;;;19.26;32.94
30819;BME280;17546;42.674;23.284;2023-04-16T05:45:19;94212.78;;;19.29;32.75
30819;BME280;17546;42.674;23.284;2023-04-16T05:47:45;94220.25;;;19.34;32.86
30819;BME280;17546;42.674;23.284;2023-04-16T05:50:10;94213.50;;;19.37;32.79
30819;BME280;17546;42.674;23.284;2023-04-16T05:52:35;94211.03;;;19.41;32.67
30819;BME280;17546;42.674;23.284;2023-04-16T05:55:01;94209.19;;;19.36;32.65
30819;BME280;17546;42.674;23.284;2023-04-16T05:57:29;94208.97;;;19.41;32.82
30819;BME280;17546;42.674;23.284;2023-04-16T05:59:55;94209.78;;;19.27;32.69
30819;BME280;17546;42.674;23.284;2023-04-16T06:02:20;94196.75;;;19.14;32.64
30819;BME280;17546;42.674;23.284;2023-04-16T06:04:46;94221.38;;;19.31;32.68
30819;BME280;17546;42.674;23.284;2023-04-16T06:07:19;94187.41;;;19.04;32.72
30819;BME280;17546;42.674;23.284;2023-04-16T06:09:44;94205.31;;;19.24;32.62
30819;BME280;17546;42.674;23.284;2023-04-16T06:12:09;94204.53;;;19.31;32.70
30819;BME280;17546;42.674;23.284;2023-04-16T06:14:35;94205.44;;;18.77;33.38
30819;BME280;17546;42.674;23.284;2023-04-16T06:17:00;94192.72;;;18.76;33.16
30819;BME280;17546;42.674;23.284;2023-04-16T06:19:26;94211.66;;;19.32;32.72
30819;BME280;17546;42.674;23.284;2023-04-16T06:21:51;94216.13;;;19.35;32.59
30819;BME280;17546;42.674;23.284;2023-04-16T06:24:17;94210.94;;;19.24;32.60
30819;BME280;17546;42.674;23.284;2023-04-16T06:26:43;94215.41;;;19.27;32.94
30819;BME280;17546;42.674;23.284;2023-04-16T06:29:08;94201.53;;;19.29;32.50
30819;BME280;17546;42.674;23.284;2023-04-16T06:31:34;94216.06;;;19.50;32.38
30819;BME280;17546;42.674;23.284;2023-04-16T06:33:59;94212.69;;;19.52;32.62
30819;BME280;17546;42.674;23.284;2023-04-16T06:36:25;94202.97;;;19.45;32.75
30819;BME280;17546;42.674;23.284;2023-04-16T06:38:51;94195.84;;;19.44;32.35
30819;BME280;17546;42.674;23.284;2023-04-16T06:41:17;94211.22;;;18.95;32.84
30819;BME280;17546;42.674;23.284;2023-04-16T06:43:42;94189.38;;;18.47;33.56
30819;BME280;17546;42.674;23.284;2023-04-16T06:46:08;94215.16;;;18.76;33.13
30819;BME280;17546;42.674;23.284;2023-04-16T06:48:33;94205.97;;;18.76;33.05
30819;BME280;17546;42.674;23.284;2023-04-16T06:50:59;94199.56;;;19.06;32.94
30819;BME280;17546;42.674;23.284;2023-04-16T06:53:25;94205.50;;;19.26;32.78
30819;BME280;17546;42.674;23.284;2023-04-16T06:55:50;94213.78;;;19.16;32.79
30819;BME280;17546;42.674;23.284;2023-04-16T06:58:15;94204.16;;;19.34;32.57
30819;BME280;17546;42.674;23.284;2023-04-16T07:00:41;94203.75;;;19.38;32.53
30819;BME280;17546;42.674;23.284;2023-04-16T07:03:06;94202.50;;;19.72;32.02
30819;BME280;17546;42.674;23.284;2023-04-16T07:05:32;94174.44;;;19.56;32.00
30819;BME280;17546;42.674;23.284;2023-04-16T07:07:58;94187.88;;;19.66;32.27
30819;BME280;17546;42.674;23.284;2023-04-16T07:10:24;94179.84;;;19.70;32.17
30819;BME280;17546;42.674;23.284;2023-04-16T07:12:49;94200.44;;;19.97;31.95
30819;BME280;17546;42.674;23.284;2023-04-16T07:15:15;94202.28;;;20.02;31.89
30819;BME280;17546;42.674;23.284;2023-04-16T07:17:40;94220.19;;;20.15;31.81
30819;BME280;17546;42.674;23.284;2023-04-16T07:20:06;94220.38;;;19.51;33.33
30819;BME280;17546;42.674;23.284;2023-04-16T07:22:34;94209.84;;;19.92;32.42
30819;BME280;17546;42.674;23.284;2023-04-16T07:24:59;94190.00;;;19.90;31.83
30819;BME280;17546;42.674;23.284;2023-04-16T07:27:25;94174.22;;;19.95;31.93
30819;BME280;17546;42.674;23.284;2023-04-16T07:29:51;94213.00;;;20.21;31.84
30819;BME280;17546;42.674;23.284;2023-04-16T07:32:16;94193.28;;;20.29;31.55
30819;BME280;17546;42.674;23.284;2023-04-16T07:34:42;94209.38;;;20.54;31.84
30819;BME280;17546;42.674;23.284;2023-04-16T07:37:07;94210.59;;;20.68;31.34
30819;BME280;17546;42.674;23.284;2023-04-16T07:39:33;94206.38;;;20.09;31.92
30819;BME280;17546;42.674;23.284;2023-04-16T07:41:58;94212.03;;;19.28;33.33
30819;BME280;17546;42.674;23.284;2023-04-16T07:44:24;94183.84;;;19.84;32.08
30819;BME280;17546;42.674;23.284;2023-04-16T07:46:51;94215.59;;;20.27;32.14
30819;BME280;17546;42.674;23.284;2023-04-16T07:49:17;94201.84;;;20.56;31.75
30819;BME280;17546;42.674;23.284;2023-04-16T07:51:42;94183.00;;;19.74;32.10
30819;BME280;17546;42.674;23.284;2023-04-16T07:54:09;94206.75;;;20.56;31.41
30819;BME280;17546;42.674;23.284;2023-04-16T07:56:35;94211.75;;;20.82;31.26
30819;BME280;17546;42.674;23.284;2023-04-16T07:59:00;94196.13;;;21.07;31.01
30819;BME280;17546;42.674;23.284;2023-04-16T08:01:26;94205.97;;;21.15;31.43
30819;BME280;17546;42.674;23.284;2023-04-16T08:03:51;94196.69;;;20.45;31.47
30819;BME280;17546;42.674;23.284;2023-04-16T08:06:17;94198.59;;;20.68;32.04
30819;BME280;17546;42.674;23.284;2023-04-16T08:08:42;94195.72;;;21.10;31.28
30819;BME280;17546;42.674;23.284;2023-04-16T08:11:08;94176.78;;;21.38;30.92
30819;BME280;17546;42.674;23.284;2023-04-16T08:13:33;94194.22;;;21.98;30.54
30819;BME280;17546;42.674;23.284;2023-04-16T08:15:58;94175.38;;;21.74;30.36
30819;BME280;17546;42.674;23.284;2023-04-16T08:18:24;94209.94;;;21.92;30.08
30819;BME280;17546;42.674;23.284;2023-04-16T08:20:50;94195.94;;;21.84;30.43
30819;BME280;17546;42.674;23.284;2023-04-16T08:23:15;94180.03;;;22.43;29.55
30819;BME280;17546;42.674;23.284;2023-04-16T08:25:42;94193.31;;;22.69;29.39
30819;BME280;17546;42.674;23.284;2023-04-16T08:28:08;94199.78;;;22.16;30.01
30819;BME280;17546;42.674;23.284;2023-04-16T08:30:33;94182.59;;;22.21;29.96
30819;BME280;17546;42.674;23.284;2023-04-16T08:32:59;94190.34;;;21.66;30.37
30819;BME280;17546;42.674;23.284;2023-04-16T08:35:26;94183.44;;;21.33;30.57
30819;BME280;17546;42.674;23.284;2023-04-16T08:37:52;94177.06;;;21.77;29.64
30819;BME280;17546;42.674;23.284;2023-04-16T08:40:18;94171.00;;;22.17;29.65
30819;BME280;17546;42.674;23.284;2023-04-16T08:42:53;94178.09;;;22.55;29.50
30819;BME280;17546;42.674;23.284;2023-04-16T08:45:20;94164.81;;;22.28;29.47
30819;BME280;17546;42.674;23.284;2023-04-16T08:47:47;94183.00;;;22.55;28.91
30819;BME280;17546;42.674;23.284;2023-04-16T08:50:18;94178.41;;;22.49;28.70
30819;BME280;17546;42.674;23.284;2023-04-16T08:52:53;94153.13;;;22.32;28.97
30819;BME280;17546;42.674;23.284;2023-04-16T08:55:22;94156.44;;;22.58;28.80
30819;BME280;17546;42.674;23.284;2023-04-16T08:57:53;94169.47;;;22.06;29.40
30819;BME280;17546;42.674;23.284;2023-04-16T09:00:19;94154.44;;;22.31;29.88
30819;BME280;17546;42.674;23.284;2023-04-16T09:02:45;94147.53;;;22.52;29.13
30819;BME280;17546;42.674;23.284;2023-04-16T09:05:13;94157.88;;;21.65;29.43
30819;BME280;17546;42.674;23.284;2023-04-16T09:07:44;94150.50;;;22.07;29.21
30819;BME280;17546;42.674;23.284;2023-04-16T09:10:11;94143.88;;;22.22;29.19
30819;BME280;17546;42.674;23.284;2023-04-16T09:12:37;94167.53;;;22.36;29.49
30819;BME280;17546;42.674;23.284;2023-04-16T09:15:04;94167.72;;;22.58;29.18
30819;BME280;17546;42.674;23.284;2023-04-16T09:17:30;94170.09;;;22.52;29.46
30819;BME280;17546;42.674;23.284;2023-04-16T09:19:55;94158.06;;;22.51;29.23
30819;BME280;17546;42.674;23.284;2023-04-16T09:22:21;94167.75;;;22.77;29.04
30819;BME280;17546;42.674;23.284;2023-04-16T09:24:46;94170.44;;;22.95;28.98
30819;BME280;17546;42.674;23.284;2023-04-16T09:27:11;94156.50;;;23.06;28.55
30819;BME280;17546;42.674;23.284;2023-04-16T09:29:39;94162.34;;;22.42;29.14
30819;BME280;17546;42.674;23.284;2023-04-16T09:32:09;94148.16;;;21.86;29.92
30819;BME280;17546;42.674;23.284;2023-04-16T09:34:59;94168.66;;;22.80;29.26
30819;BME280;17546;42.674;23.284;2023-04-16T09:37:27;94157.97;;;22.98;29.17
30819;BME280;17546;42.674;23.284;2023-04-16T09:42:25;94155.88;;;23.47;28.24
30819;BME280;17546;42.674;23.284;2023-04-16T09:44:51;94144.75;;;23.29;27.61
30819;BME280;17546;42.674;23.284;2023-04-16T09:47:17;94123.16;;;23.44;27.58
30819;BME280;17546;42.674;23.284;2023-04-16T09:49:43;94134.16;;;23.59;27.00
30819;BME280;17546;42.674;23.284;2023-04-16T09:52:19;94148.22;;;23.79;27.36
30819;BME280;17546;42.674;23.284;2023-04-16T09:54:47;94154.03;;;23.81;27.49
30819;BME280;17546;42.674;23.284;2023-04-16T09:57:13;94139.03;;;24.09;26.75
30819;BME280;17546;42.674;23.284;2023-04-16T09:59:39;94122.75;;;23.88;26.50
30819;BME280;17546;42.674;23.284;2023-04-16T10:02:06;94133.47;;;23.90;26.68
30819;BME280;17546;42.674;23.284;2023-04-16T10:04:47;94126.03;;;23.95;26.81
30819;BME280;17546;42.674;23.284;2023-04-16T10:07:13;94143.41;;;24.32;26.21
30819;BME280;17546;42.674;23.284;2023-04-16T10:09:39;94146.28;;;24.53;25.82
30819;BME280;17546;42.674;23.284;2023-04-16T10:12:06;94136.34;;;24.11;26.32
30819;BME280;17546;42.674;23.284;2023-04-16T10:14:32;94129.25;;;24.01;26.58
30819;BME280;17546;42.674;23.284;2023-04-16T10:16:58;94136.25;;;24.00;26.54
30819;BME280;17546;42.674;23.284;2023-04-16T10:19:25;94125.59;;;23.79;26.95
30819;BME280;17546;42.674;23.284;2023-04-16T10:21:52;94121.88;;;23.86;26.53
30819;BME280;17546;42.674;23.284;2023-04-16T10:24:17;94110.38;;;23.43;27.35
30819;BME280;17546;42.674;23.284;2023-04-16T10:26:44;94112.47;;;23.33;27.78
30819;BME280;17546;42.674;23.284;2023-04-16T10:29:10;94113.44;;;23.66;27.09
30819;BME280;17546;42.674;23.284;2023-04-16T10:31:37;94118.41;;;23.37;27.55
30819;BME280;17546;42.674;23.284;2023-04-16T10:34:06;94110.09;;;23.19;27.88
30819;BME280;17546;42.674;23.284;2023-04-16T10:36:36;94077.84;;;23.13;27.75
30819;BME280;17546;42.674;23.284;2023-04-16T10:39:02;94104.13;;;23.44;27.50
30819;BME280;17546;42.674;23.284;2023-04-16T10:41:27;94080.69;;;23.22;27.90
30819;BME280;17546;42.674;23.284;2023-04-16T10:44:03;94109.84;;;23.76;27.30
30819;BME280;17546;42.674;23.284;2023-04-16T10:46:41;94104.72;;;23.93;26.81
30819;BME280;17546;42.674;23.284;2023-04-16T10:49:16;94114.09;;;23.96;27.00
30819;BME280;17546;42.674;23.284;2023-04-16T10:54:30;94084.97;;;23.74;26.93
30819;BME280;17546;42.674;23.284;2023-04-16T10:57:03;94086.66;;;23.77;26.68
30819;BME280;17546;42.674;23.284;2023-04-16T10:59:33;94094.25;;;24.06;27.09
30819;BME280;17546;42.674;23.284;2023-04-16T11:02:10;94099.44;;;23.68;27.04
30819;BME280;17546;42.674;23.284;2023-04-16T11:04:38;94086.28;;;23.92;27.33
30819;BME280;17546;42.674;23.284;2023-04-16T11:15:01;94087.34;;;24.40;27.09
30819;BME280;17546;42.674;23.284;2023-04-16T11:17:51;94083.22;;;24.10;27.34
30819;BME280;17546;42.674;23.284;2023-04-16T11:20:24;94073.06;;;24.38;26.65
30819;BME280;17546;42.674;23.284;2023-04-16T11:22:54;94070.38;;;24.19;26.73
30819;BME280;17546;42.674;23.284;2023-04-16T11:25:27;94058.00;;;24.45;26.25
30819;BME280;17546;42.674;23.284;2023-04-16T11:27:58;94072.00;;;23.40;27.19
30819;BME280;17546;42.674;23.284;2023-04-16T11:30:34;94051.38;;;24.31;26.21
30819;BME280;17546;42.674;23.284;2023-04-16T11:33:10;94074.19;;;24.54;26.25
30819;BME280;17546;42.674;23.284;2023-04-16T11:35:36;94043.66;;;24.53;26.07
30819;BME280;17546;42.674;23.284;2023-04-16T11:38:04;94049.66;;;23.95;26.58
30819;BME280;17546;42.674;23.284;2023-04-16T11:40:33;94038.91;;;24.46;26.08
30819;BME280;17546;42.674;23.284;2023-04-16T11:43:11;94027.31;;;24.42;26.33
30819;BME280;17546;42.674;23.284;2023-04-16T11:45:38;94050.16;;;24.77;26.18
30819;BME280;17546;42.674;23.284;2023-04-16T11:48:07;94049.81;;;24.83;26.34
30819;BME280;17546;42.674;23.284;2023-04-16T11:50:33;94029.03;;;24.57;26.15
30819;BME280;17546;42.674;23.284;2023-04-16T11:53:03;94020.31;;;24.64;26.69
30819;BME280;17546;42.674;23.284;2023-04-16T11:55:29;94035.19;;;24.22;26.56
30819;BME280;17546;42.674;23.284;2023-04-16T11:57:55;94013.84;;;24.09;26.54
30819;BME280;17546;42.674;23.284;2023-04-16T12:00:22;94009.72;;;24.65;26.17
30819;BME280;17546;42.674;23.284;2023-04-16T12:02:52;94010.13;;;24.71;26.03
30819;BME280;17546;42.674;23.284;2023-04-16T12:05:35;94012.03;;;24.35;26.50
30819;BME280;17546;42.674;23.284;2023-04-16T12:08:10;94016.19;;;24.77;26.31
30819;BME280;17546;42.674;23.284;2023-04-16T12:10:52;94008.84;;;23.66;27.39
30819;BME280;17546;42.674;23.284;2023-04-16T12:13:20;94014.78;;;24.02;27.25
30819;BME280;17546;42.674;23.284;2023-04-16T12:15:50;94004.53;;;24.18;26.90
30819;BME280;17546;42.674;23.284;2023-04-16T12:18:16;94003.28;;;24.52;26.82
30819;BME280;17546;42.674;23.284;2023-04-16T12:20:43;94001.91;;;24.75;26.15
30819;BME280;17546;42.674;23.284;2023-04-16T12:23:20;93983.66;;;24.78;26.77
30819;BME280;17546;42.674;23.284;2023-04-16T12:25:46;93984.91;;;24.75;26.55
30819;BME280;17546;42.674;23.284;2023-04-16T12:28:14;93991.34;;;24.87;26.30
30819;BME280;17546;42.674;23.284;2023-04-16T12:30:51;93990.28;;;25.04;26.18
30819;BME280;17546;42.674;23.284;2023-04-16T12:33:17;93984.56;;;24.81;26.42
30819;BME280;17546;42.674;23.284;2023-04-16T12:35:43;93990.66;;;24.99;26.19
30819;BME280;17546;42.674;23.284;2023-04-16T12:38:09;93993.88;;;25.05;26.43
30819;BME280;17546;42.674;23.284;2023-04-16T12:40:36;93970.44;;;24.92;26.52
30819;BME280;17546;42.674;23.284;2023-04-16T12:43:02;93975.31;;;24.80;26.02
30819;BME280;17546;42.674;23.284;2023-04-16T12:45:27;93973.66;;;24.99;26.35
30819;BME280;17546;42.674;23.284;2023-04-16T12:47:53;93972.53;;;25.04;26.25
30819;BME280;17546;42.674;23.284;2023-04-16T12:50:18;93980.13;;;24.56;26.94
30819;BME280;17546;42.674;23.284;2023-04-16T12:52:44;93973.41;;;24.40;27.49
30819;BME280;17546;42.674;23.284;2023-04-16T12:55:09;93988.38;;;24.30;27.69
30819;BME280;17546;42.674;23.284;2023-04-16T12:57:35;93981.44;;;24.22;27.84
30819;BME280;17546;42.674;23.284;2023-04-16T13:00:00;93981.44;;;24.22;27.66
30819;BME280;17546;42.674;23.284;2023-04-16T13:02:26;93985.69;;;24.11;27.83